Time;durP1;ratioP1;P1;durP2;ratioP2;P2;SDS_P1;SDS_P2;PMS_P1;PMS_P2;Temp;Humidity;BMP_temperature;BMP_pressure;BME280_temperature;BME280_humidity;BME280_pressure;Samples;Min_cycle;Max_cycle;Signal;HPM_P1;HPM_P2
2020/12/06 00:01:48;;;;;;;2.53;1.85;;;22.10;30.60;;;;;;5000138;28;20056;-46
2020/12/06 00:04:21;;;;;;;2.80;1.90;;;22.10;30.40;;;;;;5004546;28;20034;-45
2020/12/06 00:06:47;;;;;;;2.33;1.80;;;22.10;30.40;;;;;;5002564;28;20030;-47
2020/12/06 00:09:17;;;;;;;3.97;2.25;;;22.10;30.40;;;;;;5006217;28;20037;-45
2020/12/06 00:11:43;;;;;;;3.28;1.70;;;22.10;30.40;;;;;;5002370;28;20100;-44
2020/12/06 00:14:08;;;;;;;2.20;1.67;;;22.00;30.40;;;;;;5001673;28;20485;-46
2020/12/06 00:16:34;;;;;;;3.58;2.17;;;22.00;30.40;;;;;;5001810;28;20422;-48
2020/12/06 00:19:00;;;;;;;2.40;1.70;;;22.10;30.50;;;;;;5007046;28;20026;-50
2020/12/06 00:21:25;;;;;;;3.05;1.80;;;22.00;30.40;;;;;;5003494;28;20057;-43
2020/12/06 00:23:51;;;;;;;2.50;1.85;;;22.00;30.40;;;;;;5003719;28;20114;-49
2020/12/06 00:26:24;;;;;;;3.03;1.90;;;22.00;30.40;;;;;;5002784;28;20026;-45
2020/12/06 00:28:51;;;;;;;2.65;2.03;;;22.00;30.40;;;;;;5002388;28;20030;-44
2020/12/06 00:31:17;;;;;;;1.90;1.55;;;22.00;30.50;;;;;;5014546;28;20030;-47
2020/12/06 00:33:44;;;;;;;2.60;1.98;;;22.00;30.50;;;;;;5005739;28;20037;-45
2020/12/06 00:36:11;;;;;;;2.90;2.03;;;22.00;30.50;;;;;;5009248;28;20041;-49
2020/12/06 00:38:37;;;;;;;2.28;1.73;;;22.00;30.50;;;;;;5006595;28;20027;-49
2020/12/06 00:41:03;;;;;;;3.78;2.10;;;21.90;30.40;;;;;;5006107;28;20034;-47
2020/12/06 00:43:29;;;;;;;3.95;2.10;;;21.90;30.40;;;;;;5007200;28;20049;-50
2020/12/06 00:45:54;;;;;;;6.50;2.03;;;21.90;30.50;;;;;;5007657;28;20105;-47
2020/12/06 00:48:20;;;;;;;2.65;2.00;;;21.90;30.50;;;;;;5004062;28;20323;-46
2020/12/06 00:50:46;;;;;;;2.72;2.17;;;21.90;30.50;;;;;;4990285;28;20093;-46
2020/12/06 00:53:12;;;;;;;2.63;1.65;;;21.90;30.50;;;;;;5006621;28;20034;-46
2020/12/06 00:55:38;;;;;;;2.42;1.88;;;21.90;31.10;;;;;;4988204;28;20045;-46
2020/12/06 00:58:05;;;;;;;3.25;2.30;;;21.90;30.60;;;;;;4989069;28;20021;-46
2020/12/06 01:00:30;;;;;;;2.75;1.73;;;21.90;30.60;;;;;;5009003;28;20048;-47
2020/12/06 01:02:57;;;;;;;2.30;1.90;;;21.80;30.50;;;;;;5005837;28;20042;-46
2020/12/06 01:05:22;;;;;;;3.13;2.13;;;21.80;30.50;;;;;;5001337;28;20027;-47
2020/12/06 01:07:48;;;;;;;1.73;1.40;;;21.80;30.50;;;;;;5005408;28;20030;-45
2020/12/06 01:10:15;;;;;;;3.13;1.85;;;21.80;30.60;;;;;;5005032;28;20026;-43
2020/12/06 01:12:40;;;;;;;3.35;1.85;;;21.80;30.60;;;;;;5006034;28;20330;-45
2020/12/06 01:15:09;;;;;;;3.33;1.88;;;21.80;30.60;;;;;;5004317;28;20026;-44
2020/12/06 01:17:35;;;;;;;2.05;1.67;;;21.80;30.60;;;;;;5004338;28;20068;-49
2020/12/06 01:20:01;;;;;;;2.33;1.80;;;21.80;30.60;;;;;;5005958;28;20229;-44
2020/12/06 01:22:27;;;;;;;2.15;1.80;;;21.80;30.70;;;;;;5007369;28;20129;-44
2020/12/06 01:24:53;;;;;;;2.40;1.70;;;21.80;30.70;;;;;;5006840;28;20366;-49
2020/12/06 01:27:18;;;;;;;2.13;1.90;;;21.80;30.80;;;;;;5004579;28;20030;-49
2020/12/06 01:29:44;;;;;;;2.83;1.88;;;21.80;30.70;;;;;;5007801;28;20041;-46
2020/12/06 01:32:10;;;;;;;2.58;1.90;;;21.70;30.70;;;;;;5009856;28;20030;-44
2020/12/06 01:34:36;;;;;;;2.08;1.40;;;21.70;30.70;;;;;;5006285;28;20162;-44
2020/12/06 01:37:02;;;;;;;3.17;1.80;;;21.70;30.70;;;;;;5006307;28;20464;-44
2020/12/06 01:39:27;;;;;;;2.55;2.00;;;21.70;30.70;;;;;;5007160;28;20038;-47
2020/12/06 01:41:55;;;;;;;2.38;1.60;;;21.70;30.70;;;;;;5006937;28;20129;-47
2020/12/06 01:44:22;;;;;;;2.40;1.80;;;21.70;30.70;;;;;;5004365;28;20464;-42
2020/12/06 01:46:50;;;;;;;2.63;1.90;;;21.70;31.40;;;;;;5006204;28;20034;-46
2020/12/06 01:49:20;;;;;;;3.60;1.83;;;21.70;30.80;;;;;;5004729;28;20109;-46
2020/12/06 01:51:51;;;;;;;2.03;1.60;;;21.70;30.80;;;;;;5005458;28;20030;-46
2020/12/06 01:54:17;;;;;;;3.42;2.10;;;21.60;30.70;;;;;;5005785;28;20034;-47
2020/12/06 01:56:43;;;;;;;2.95;1.92;;;21.70;30.80;;;;;;5005202;28;20034;-45
2020/12/06 01:59:11;;;;;;;2.22;1.70;;;21.60;30.80;;;;;;5007316;28;20037;-45
2020/12/06 02:01:38;;;;;;;2.03;1.60;;;21.60;30.80;;;;;;5006136;28;20046;-43
2020/12/06 02:04:05;;;;;;;3.53;1.90;;;21.60;30.90;;;;;;5005656;28;20323;-47
2020/12/06 02:06:31;;;;;;;2.00;1.52;;;21.60;30.80;;;;;;5006271;28;20033;-44
2020/12/06 02:08:57;;;;;;;2.22;1.60;;;21.60;30.90;;;;;;5007839;28;20113;-44
2020/12/06 02:11:31;;;;;;;3.50;1.73;;;21.60;30.90;;;;;;5004803;28;20041;-47
2020/12/06 02:13:57;;;;;;;2.65;1.80;;;21.60;30.90;;;;;;5005781;28;20072;-47
2020/12/06 02:16:22;;;;;;;3.55;1.52;;;21.60;30.90;;;;;;5004457;28;20407;-45
2020/12/06 02:18:49;;;;;;;2.10;1.52;;;21.60;30.90;;;;;;5003884;28;20109;-45
2020/12/06 02:21:14;;;;;;;1.98;1.70;;;21.50;30.90;;;;;;5004197;28;20430;-43
2020/12/06 02:23:40;;;;;;;2.00;1.70;;;21.50;30.90;;;;;;5009562;28;20034;-46
2020/12/06 02:26:06;;;;;;;1.98;1.67;;;21.50;30.90;;;;;;5004452;28;20053;-47
2020/12/06 02:28:32;;;;;;;2.67;1.70;;;21.50;30.90;;;;;;5003473;28;20044;-43
2020/12/06 02:30:57;;;;;;;1.73;1.42;;;21.50;30.90;;;;;;5004032;28;20038;-43
2020/12/06 02:33:23;;;;;;;2.00;1.60;;;21.50;30.90;;;;;;5002333;28;20113;-44
2020/12/06 02:35:49;;;;;;;2.15;1.48;;;21.50;30.90;;;;;;5003389;28;20085;-48
2020/12/06 02:38:15;;;;;;;2.20;1.73;;;21.50;31.00;;;;;;5005110;28;20030;-49
2020/12/06 02:40:40;;;;;;;1.90;1.42;;;21.50;30.90;;;;;;5005033;28;20029;-50
2020/12/06 02:43:06;;;;;;;2.63;1.60;;;21.50;31.00;;;;;;5004231;28;20049;-48
2020/12/06 02:45:32;;;;;;;2.13;1.67;;;21.50;31.10;;;;;;5004688;28;20041;-45
2020/12/06 02:47:58;;;;;;;1.70;1.60;;;21.50;31.10;;;;;;5003494;28;20062;-47
2020/12/06 02:50:23;;;;;;;2.33;2.10;;;21.50;31.10;;;;;;5003459;28;20065;-49
2020/12/06 02:52:51;;;;;;;2.05;1.70;;;21.40;31.10;;;;;;5004029;28;20038;-45
2020/12/06 02:55:17;;;;;;;2.30;1.60;;;21.50;31.20;;;;;;5002725;28;20101;-45
2020/12/06 02:57:42;;;;;;;2.03;1.63;;;21.50;31.20;;;;;;5001226;28;20125;-45
2020/12/06 03:00:08;;;;;;;2.00;1.50;;;21.40;31.20;;;;;;5004442;28;20052;-44
2020/12/06 03:02:34;;;;;;;1.83;1.40;;;21.40;31.30;;;;;;5007728;28;20033;-47
2020/12/06 03:05:00;;;;;;;3.15;1.90;;;21.40;31.30;;;;;;5002361;28;20117;-46
2020/12/06 03:07:26;;;;;;;2.30;1.70;;;21.40;31.30;;;;;;5004119;28;20026;-47
2020/12/06 03:09:51;;;;;;;3.03;1.55;;;21.40;31.40;;;;;;5006172;28;20053;-48
2020/12/06 03:12:17;;;;;;;1.73;1.52;;;21.40;31.40;;;;;;5003802;28;20124;-44
2020/12/06 03:14:43;;;;;;;1.80;1.60;;;21.40;31.40;;;;;;5002859;28;20082;-48
2020/12/06 03:17:08;;;;;;;1.73;1.58;;;21.40;31.40;;;;;;5002859;28;20029;-45
2020/12/06 03:19:34;;;;;;;2.80;1.55;;;21.40;32.00;;;;;;5005860;28;20038;-44
2020/12/06 03:22:00;;;;;;;1.92;1.33;;;21.40;31.40;;;;;;5003223;28;20129;-46
2020/12/06 03:24:26;;;;;;;1.98;1.60;;;21.40;31.50;;;;;;5006856;28;20372;-46
2020/12/06 03:26:51;;;;;;;2.08;1.35;;;21.40;31.50;;;;;;5023259;28;20345;-49
2020/12/06 03:29:17;;;;;;;1.48;1.23;;;21.30;31.40;;;;;;5022583;28;20466;-46
2020/12/06 03:31:43;;;;;;;1.60;1.48;;;21.40;31.50;;;;;;5024140;28;20036;-47
2020/12/06 03:34:10;;;;;;;1.75;1.35;;;21.40;31.60;;;;;;5021140;28;20056;-44
2020/12/06 03:36:36;;;;;;;1.75;1.50;;;21.30;31.50;;;;;;5031116;28;20349;-46
2020/12/06 03:39:02;;;;;;;2.20;1.35;;;21.30;31.60;;;;;;5023130;28;20099;-45
2020/12/06 03:41:28;;;;;;;1.65;1.50;;;21.30;31.60;;;;;;5020853;28;20038;-44
2020/12/06 03:43:53;;;;;;;2.00;1.40;;;21.30;31.60;;;;;;5021625;28;20049;-49
2020/12/06 03:46:19;;;;;;;1.83;1.42;;;21.30;31.70;;;;;;5022778;28;20052;-48
2020/12/06 03:48:45;;;;;;;1.48;1.08;;;21.30;31.70;;;;;;5022712;28;20084;-47
2020/12/06 03:51:10;;;;;;;2.00;1.50;;;21.30;31.70;;;;;;5023834;28;20382;-48
2020/12/06 03:53:36;;;;;;;1.58;1.40;;;21.30;31.70;;;;;;5023552;28;20029;-48
2020/12/06 03:56:02;;;;;;;1.70;1.23;;;21.30;31.60;;;;;;5024443;28;20104;-48
2020/12/06 03:58:28;;;;;;;2.65;1.65;;;21.30;31.60;;;;;;5021517;28;20030;-43
2020/12/06 04:00:53;;;;;;;2.00;1.45;;;21.20;31.50;;;;;;5022960;28;20086;-50
2020/12/06 04:03:19;;;;;;;2.20;1.50;;;21.30;31.60;;;;;;5024525;28;20063;-45
2020/12/06 04:05:45;;;;;;;1.83;1.60;;;21.20;31.60;;;;;;5021677;28;20479;-46
2020/12/06 04:08:10;;;;;;;2.47;1.52;;;21.30;31.60;;;;;;5021788;28;20433;-47
2020/12/06 04:10:36;;;;;;;1.50;1.40;;;21.30;31.60;;;;;;5023460;28;20025;-45
2020/12/06 04:13:02;;;;;;;2.15;1.45;;;21.20;31.60;;;;;;5023323;28;20026;-44
2020/12/06 04:15:28;;;;;;;1.42;1.13;;;21.30;31.60;;;;;;5023420;28;20037;-46
2020/12/06 04:17:53;;;;;;;1.92;1.42;;;21.20;31.50;;;;;;5021181;28;20030;-43
2020/12/06 04:20:19;;;;;;;2.22;1.40;;;21.20;31.50;;;;;;5023074;28;20052;-50
2020/12/06 04:22:45;;;;;;;1.50;1.35;;;21.20;31.50;;;;;;5022405;28;20076;-49
2020/12/06 04:25:11;;;;;;;2.25;1.70;;;21.20;31.50;;;;;;5013165;28;20049;-53
2020/12/06 04:27:36;;;;;;;1.70;1.30;;;21.20;31.50;;;;;;5004585;28;20040;-51
2020/12/06 04:30:03;;;;;;;2.30;1.90;;;21.20;31.50;;;;;;5005895;28;20031;-50
2020/12/06 04:32:29;;;;;;;2.15;1.50;;;21.20;31.40;;;;;;5003745;28;20425;-51
2020/12/06 04:34:54;;;;;;;1.58;1.38;;;21.20;31.40;;;;;;5002110;28;20037;-43
2020/12/06 04:37:20;;;;;;;1.40;1.30;;;21.20;32.10;;;;;;5002223;28;20323;-42
2020/12/06 04:39:46;;;;;;;1.67;1.35;;;21.10;31.40;;;;;;5010763;28;20052;-42
2020/12/06 04:42:12;;;;;;;1.88;1.48;;;21.10;31.30;;;;;;4998135;28;20134;-47
2020/12/06 04:44:38;;;;;;;2.58;1.77;;;21.20;31.40;;;;;;5014475;28;20033;-43
2020/12/06 04:47:06;;;;;;;2.28;1.50;;;21.10;31.30;;;;;;5002888;28;20053;-43
2020/12/06 04:49:44;;;;;;;1.80;1.70;;;21.10;31.30;;;;;;5011669;28;20037;-45
2020/12/06 04:52:18;;;;;;;1.67;1.52;;;21.10;31.20;;;;;;5000628;28;20034;-45
2020/12/06 04:54:50;;;;;;;1.98;1.65;;;21.10;31.20;;;;;;5002178;28;20030;-45
2020/12/06 04:57:18;;;;;;;2.63;1.60;;;21.10;31.30;;;;;;5003198;28;20446;-46
2020/12/06 04:59:46;;;;;;;1.75;1.45;;;21.10;31.20;;;;;;5012726;28;20120;-45
2020/12/06 05:02:18;;;;;;;1.98;1.48;;;21.10;31.20;;;;;;5003507;28;20127;-48
2020/12/06 05:04:47;;;;;;;2.08;1.55;;;21.10;31.30;;;;;;5002839;28;20109;-46
2020/12/06 05:07:20;;;;;;;2.38;1.63;;;21.10;31.90;;;;;;5002215;28;20026;-44
2020/12/06 05:09:48;;;;;;;2.28;1.48;;;21.10;31.20;;;;;;5007924;28;20121;-47
2020/12/06 05:12:15;;;;;;;1.48;1.30;;;21.10;31.20;;;;;;5002626;28;20030;-45
2020/12/06 05:14:41;;;;;;;1.42;1.30;;;21.00;31.10;;;;;;5001810;28;20425;-44
2020/12/06 05:17:08;;;;;;;2.40;1.90;;;21.10;31.20;;;;;;5002718;28;20062;-43
2020/12/06 05:19:34;;;;;;;1.73;1.50;;;21.00;31.20;;;;;;5006574;28;20105;-44
2020/12/06 05:22:00;;;;;;;2.50;1.98;;;21.00;31.20;;;;;;5005817;28;20433;-47
2020/12/06 05:24:26;;;;;;;2.35;1.73;;;21.00;31.20;;;;;;5005559;28;20133;-43
2020/12/06 05:26:51;;;;;;;1.48;1.38;;;21.00;31.30;;;;;;5006142;28;20105;-48
2020/12/06 05:29:17;;;;;;;1.90;1.67;;;21.00;31.30;;;;;;5004219;28;20126;-45
2020/12/06 05:31:43;;;;;;;1.90;1.48;;;21.00;31.30;;;;;;5005086;28;20117;-46
2020/12/06 05:34:10;;;;;;;2.65;1.77;;;21.00;31.30;;;;;;5005180;28;20026;-45
2020/12/06 05:36:42;;;;;;;1.60;1.50;;;21.00;31.30;;;;;;5007492;28;20108;-44
2020/12/06 05:39:08;;;;;;;2.13;1.60;;;21.00;31.20;;;;;;5003945;28;20121;-43
2020/12/06 05:41:33;;;;;;;2.33;1.88;;;21.00;31.20;;;;;;4995691;28;20102;-46
2020/12/06 05:44:05;;;;;;;2.08;1.80;;;21.00;31.20;;;;;;5004136;28;20041;-46
2020/12/06 05:46:33;;;;;;;2.97;1.92;;;21.00;31.20;;;;;;5006582;28;20083;-42
2020/12/06 05:49:01;;;;;;;2.25;1.77;;;21.00;31.20;;;;;;5007195;28;20027;-44
2020/12/06 05:51:27;;;;;;;2.28;1.70;;;21.00;31.20;;;;;;5004759;28;20045;-47
2020/12/06 05:53:56;;;;;;;2.05;1.80;;;21.00;31.20;;;;;;5006338;28;20033;-43
2020/12/06 05:56:22;;;;;;;1.90;1.50;;;21.00;31.20;;;;;;5003902;28;20372;-46
2020/12/06 05:58:49;;;;;;;2.22;1.60;;;21.00;31.20;;;;;;5006246;28;20120;-45
2020/12/06 06:01:16;;;;;;;2.47;2.05;;;21.00;31.20;;;;;;5003510;28;20049;-45
2020/12/06 06:03:53;;;;;;;2.20;1.67;;;21.00;31.20;;;;;;5009584;28;20060;-44
2020/12/06 06:06:34;;;;;;;2.22;1.90;;;21.00;31.20;;;;;;5004349;28;20040;-44
2020/12/06 06:09:04;;;;;;;1.85;1.70;;;21.00;31.20;;;;;;5005806;28;20030;-49
2020/12/06 06:11:32;;;;;;;2.55;2.10;;;20.90;31.10;;;;;;5003701;28;20513;-50
2020/12/06 06:14:05;;;;;;;2.17;1.95;;;20.90;31.20;;;;;;5004699;28;20121;-48
2020/12/06 06:16:32;;;;;;;2.45;2.15;;;20.90;31.10;;;;;;5004943;28;20045;-43
2020/12/06 06:19:01;;;;;;;2.67;2.28;;;20.90;31.10;;;;;;5004227;28;20038;-48
2020/12/06 06:21:40;;;;;;;2.83;2.00;;;20.90;31.10;;;;;;5004352;28;20046;-49
2020/12/06 06:24:12;;;;;;;2.92;2.15;;;20.90;31.10;;;;;;5003835;28;20104;-44
2020/12/06 06:26:41;;;;;;;2.55;2.15;;;20.90;31.10;;;;;;5004767;28;21550;-46
2020/12/06 06:29:14;;;;;;;3.05;2.30;;;20.90;31.10;;;;;;5004152;28;20038;-47
2020/12/06 06:31:42;;;;;;;2.83;2.13;;;20.90;31.10;;;;;;5003131;28;20094;-48
2020/12/06 06:34:08;;;;;;;2.30;2.10;;;20.90;31.10;;;;;;5005026;28;20034;-45
2020/12/06 06:36:35;;;;;;;2.88;2.30;;;20.90;31.10;;;;;;5005002;28;20018;-45
2020/12/06 06:39:02;;;;;;;2.88;2.40;;;20.90;31.10;;;;;;5004954;28;20426;-45
2020/12/06 06:41:29;;;;;;;2.75;2.33;;;20.90;31.10;;;;;;5009328;28;20030;-47
2020/12/06 06:44:04;;;;;;;3.05;2.42;;;20.80;31.10;;;;;;5007669;28;20038;-44
2020/12/06 06:46:34;;;;;;;4.22;2.60;;;20.90;31.10;;;;;;5003334;28;20069;-47
2020/12/06 06:49:12;;;;;;;2.45;2.22;;;20.80;31.10;;;;;;5003070;28;20093;-45
2020/12/06 06:51:51;;;;;;;2.50;2.30;;;20.80;31.10;;;;;;5002553;28;20030;-47
2020/12/06 06:54:28;;;;;;;2.95;2.33;;;20.80;31.10;;;;;;5004945;28;20061;-44
2020/12/06 06:56:55;;;;;;;2.60;2.40;;;20.80;31.10;;;;;;5002886;28;20041;-47
2020/12/06 06:59:44;;;;;;;2.58;2.05;;;20.80;31.10;;;;;;5004138;28;20030;-48
2020/12/06 07:02:38;;;;;;;3.05;2.45;;;20.80;31.10;;;;;;5003815;28;20050;-49
2020/12/06 07:05:20;;;;;;;2.95;2.40;;;20.80;31.10;;;;;;5004925;28;20451;-46
2020/12/06 07:07:46;;;;;;;3.60;2.83;;;20.80;31.10;;;;;;5004845;28;20463;-45
2020/12/06 07:10:20;;;;;;;3.65;2.33;;;20.80;31.10;;;;;;5005016;28;20082;-45
2020/12/06 07:12:45;;;;;;;2.85;2.47;;;20.80;31.20;;;;;;5004538;28;20342;-44
2020/12/06 07:15:12;;;;;;;3.10;2.17;;;20.80;31.20;;;;;;5003964;28;20036;-44
2020/12/06 07:17:39;;;;;;;2.40;2.20;;;20.80;31.20;;;;;;5002219;28;20100;-46
2020/12/06 07:20:08;;;;;;;2.78;2.40;;;20.80;31.20;;;;;;5004346;28;20323;-44
2020/12/06 07:22:35;;;;;;;2.40;2.20;;;20.80;31.20;;;;;;5005527;28;20053;-49
2020/12/06 07:25:03;;;;;;;2.75;2.40;;;20.80;31.20;;;;;;5004204;28;20046;-49
2020/12/06 07:27:29;;;;;;;2.47;2.20;;;20.80;31.20;;;;;;5004248;28;20041;-45
2020/12/06 07:29:55;;;;;;;3.75;2.30;;;20.80;31.20;;;;;;5004245;28;20029;-49
2020/12/06 07:32:20;;;;;;;2.55;2.28;;;20.70;31.30;;;;;;5003113;28;20029;-47
2020/12/06 07:34:47;;;;;;;2.70;2.30;;;20.70;31.40;;;;;;5007403;28;20021;-47
2020/12/06 07:37:14;;;;;;;2.58;2.28;;;20.70;31.30;;;;;;5004876;28;20023;-47
2020/12/06 07:39:48;;;;;;;3.35;2.60;;;20.70;31.30;;;;;;5005961;28;20054;-46
2020/12/06 07:42:19;;;;;;;2.53;1.95;;;20.80;31.30;;;;;;5002844;28;20446;-47
2020/12/06 07:44:47;;;;;;;2.38;2.03;;;20.70;31.30;;;;;;5009114;28;20044;-44
2020/12/06 07:47:13;;;;;;;2.75;2.05;;;20.70;31.30;;;;;;5002168;28;20049;-48
2020/12/06 07:49:43;;;;;;;5.35;2.33;;;20.70;31.50;;;;;;5002456;28;20033;-45
2020/12/06 07:52:13;;;;;;;3.03;2.20;;;20.70;31.60;;;;;;5006327;28;20341;-47
2020/12/06 07:54:39;;;;;;;2.47;2.15;;;20.70;31.70;;;;;;5009845;28;20116;-46
2020/12/06 07:57:07;;;;;;;2.63;2.35;;;20.70;31.70;;;;;;5004612;28;20176;-46
2020/12/06 07:59:35;;;;;;;2.38;2.10;;;20.70;31.70;;;;;;5005037;28;20323;-47
2020/12/06 08:02:02;;;;;;;2.65;2.30;;;20.70;31.70;;;;;;5005404;28;20038;-50
2020/12/06 08:04:35;;;;;;;2.15;1.95;;;20.70;31.70;;;;;;5006577;28;20041;-50
2020/12/06 08:07:12;;;;;;;3.13;1.87;;;20.70;32.00;;;;;;5005804;28;20037;-48
2020/12/06 08:09:43;;;;;;;2.10;1.67;;;20.70;32.40;;;;;;5004351;28;20034;-51
2020/12/06 08:12:11;;;;;;;3.70;1.50;;;20.70;32.70;;;;;;5004309;28;20054;-47
2020/12/06 08:14:37;;;;;;;1.83;1.60;;;20.80;33.00;;;;;;5000583;28;20032;-50
2020/12/06 08:17:03;;;;;;;1.88;1.40;;;20.80;33.80;;;;;;5006462;28;20475;-51
2020/12/06 08:19:29;;;;;;;2.10;1.40;;;20.80;33.30;;;;;;5002263;28;20030;-46
2020/12/06 08:22:03;;;;;;;2.35;1.50;;;20.90;33.40;;;;;;5001635;28;20036;-49
2020/12/06 08:24:32;;;;;;;2.33;1.50;;;20.90;33.40;;;;;;5001098;28;20097;-51
2020/12/06 08:26:59;;;;;;;2.08;1.42;;;21.00;33.60;;;;;;5005567;28;20037;-47
2020/12/06 08:29:43;;;;;;;2.35;1.70;;;21.00;33.70;;;;;;5005521;28;20034;-48
2020/12/06 08:32:10;;;;;;;1.58;1.38;;;21.00;33.80;;;;;;5005868;28;20030;-49
2020/12/06 08:34:36;;;;;;;1.20;1.10;;;21.10;33.80;;;;;;5012129;28;20034;-51
2020/12/06 08:37:19;;;;;;;1.63;1.40;;;21.10;33.80;;;;;;5003215;28;20026;-48
2020/12/06 08:39:46;;;;;;;2.45;1.23;;;21.20;33.60;;;;;;5003516;28;20040;-50
2020/12/06 08:42:13;;;;;;;2.05;1.38;;;21.10;33.40;;;;;;5004974;28;20066;-54
2020/12/06 08:44:56;;;;;;;1.60;1.50;;;21.20;33.30;;;;;;5001835;28;20026;-48
2020/12/06 08:47:24;;;;;;;2.08;1.67;;;21.20;33.00;;;;;;5002529;28;20096;-49
2020/12/06 08:50:05;;;;;;;3.05;1.60;;;21.20;33.00;;;;;;4999780;28;20030;-52
2020/12/06 08:52:31;;;;;;;4.18;1.75;;;21.30;32.80;;;;;;5004105;28;20022;-51
2020/12/06 08:54:58;;;;;;;2.05;1.70;;;21.20;32.60;;;;;;5003012;28;20022;-49
2020/12/06 08:57:26;;;;;;;2.47;1.70;;;21.30;32.60;;;;;;5006267;28;20034;-49
2020/12/06 08:59:52;;;;;;;2.33;1.90;;;21.30;32.50;;;;;;5008426;28;20030;-51
2020/12/06 09:02:24;;;;;;;2.60;2.05;;;21.30;32.50;;;;;;5002936;28;20104;-48
2020/12/06 09:04:51;;;;;;;3.17;1.63;;;21.40;32.50;;;;;;5005812;28;20030;-47
2020/12/06 09:07:17;;;;;;;1.80;1.50;;;21.40;32.40;;;;;;5006793;28;20030;-48
2020/12/06 09:09:43;;;;;;;2.08;1.50;;;21.40;32.40;;;;;;5007664;28;20034;-48
2020/12/06 09:12:10;;;;;;;1.98;1.70;;;21.40;32.20;;;;;;5005907;28;20041;-48
2020/12/06 09:14:37;;;;;;;2.40;1.60;;;21.40;32.20;;;;;;5005851;28;20044;-48
2020/12/06 09:17:03;;;;;;;1.92;1.55;;;21.40;32.10;;;;;;5009298;28;20033;-50
2020/12/06 09:19:29;;;;;;;1.95;1.70;;;21.50;32.10;;;;;;5007570;28;20026;-48
2020/12/06 09:21:54;;;;;;;2.00;1.58;;;21.60;32.00;;;;;;5006554;28;20084;-49
2020/12/06 09:24:20;;;;;;;3.30;1.73;;;21.60;31.90;;;;;;5005165;28;20109;-45
2020/12/06 09:26:46;;;;;;;2.60;1.77;;;21.70;31.80;;;;;;5006395;28;20038;-49
2020/12/06 09:29:12;;;;;;;3.10;1.63;;;21.80;31.80;;;;;;5015738;28;20030;-54
2020/12/06 09:31:42;;;;;;;2.35;1.45;;;21.90;31.80;;;;;;5014050;28;20346;-55
2020/12/06 09:34:09;;;;;;;6.22;2.83;;;22.10;31.70;;;;;;5013039;28;20034;-57
2020/12/06 09:36:41;;;;;;;11.57;5.13;;;22.30;30.70;;;;;;5008053;28;20088;-57
2020/12/06 09:39:07;;;;;;;5.32;4.82;;;22.40;28.80;;;;;;5008633;28;20038;-62
2020/12/06 09:41:33;;;;;;;5.30;4.18;;;22.30;28.20;;;;;;5008594;28;20033;-54
2020/12/06 09:43:58;;;;;;;3.50;2.90;;;22.30;28.40;;;;;;5015269;28;20215;-58
2020/12/06 09:46:24;;;;;;;5.75;2.60;;;22.30;28.80;;;;;;4992447;28;20133;-56
2020/12/06 09:48:50;;;;;;;7.45;2.65;;;22.40;29.10;;;;;;5009733;28;20355;-59
2020/12/06 09:51:16;;;;;;;2.92;1.95;;;22.60;29.40;;;;;;5007964;28;20030;-58
2020/12/06 09:53:41;;;;;;;4.90;2.33;;;22.80;29.60;;;;;;5007954;28;20069;-56
2020/12/06 09:56:07;;;;;;;2.17;1.52;;;23.00;29.70;;;;;;5006952;28;20026;-56
2020/12/06 09:58:33;;;;;;;2.10;1.75;;;23.10;29.70;;;;;;5008636;28;20027;-51
2020/12/06 10:00:59;;;;;;;1.80;1.60;;;23.30;29.80;;;;;;5008059;28;20026;-59
2020/12/06 10:03:25;;;;;;;2.08;1.73;;;23.40;29.80;;;;;;5008280;28;20037;-60
2020/12/06 10:05:51;;;;;;;2.83;1.85;;;23.60;29.90;;;;;;5005751;28;20026;-61
2020/12/06 10:08:16;;;;;;;5.18;1.50;;;23.80;29.90;;;;;;5010649;28;20456;-62
2020/12/06 10:10:42;;;;;;;2.38;1.60;;;23.90;29.90;;;;;;5006256;28;20172;-59
2020/12/06 10:13:08;;;;;;;1.75;1.50;;;24.00;29.80;;;;;;5005619;28;20135;-57
2020/12/06 10:15:34;;;;;;;2.55;1.63;;;24.10;29.80;;;;;;5007703;28;20036;-55
2020/12/06 10:18:00;;;;;;;2.95;1.63;;;24.20;29.70;;;;;;5009264;28;20050;-46
2020/12/06 10:20:26;;;;;;;3.55;1.73;;;24.30;29.70;;;;;;5007897;28;20445;-56
2020/12/06 10:22:51;;;;;;;1.83;1.30;;;24.40;29.70;;;;;;5009987;28;20052;-60
2020/12/06 10:25:17;;;;;;;4.35;1.92;;;24.40;29.70;;;;;;5017598;28;20065;-57
2020/12/06 10:27:43;;;;;;;5.53;2.67;;;24.40;29.80;;;;;;5022671;28;20041;-53
2020/12/06 10:30:09;;;;;;;6.68;3.47;;;24.40;29.90;;;;;;5035763;28;20110;-55
2020/12/06 10:32:35;;;;;;;7.72;3.90;;;24.40;30.00;;;;;;5033276;28;20095;-61
2020/12/06 10:35:00;;;;;;;11.40;4.65;;;24.40;30.30;;;;;;5031582;28;20036;-61
2020/12/06 10:37:26;;;;;;;11.02;5.22;;;24.40;30.70;;;;;;5027297;28;20033;-61
2020/12/06 10:39:52;;;;;;;10.98;5.18;;;24.50;31.10;;;;;;5027991;28;20021;-56
2020/12/06 10:42:19;;;;;;;12.85;5.63;;;24.50;31.50;;;;;;5025661;28;20033;-55
2020/12/06 10:44:49;;;;;;;12.77;6.00;;;24.60;31.80;;;;;;5030002;28;20029;-60
2020/12/06 10:47:18;;;;;;;8.80;5.10;;;24.60;31.30;;;;;;5028034;28;20029;-60
2020/12/06 10:49:45;;;;;;;5.50;4.05;;;24.40;27.20;;;;;;5036436;28;20029;-58
2020/12/06 10:52:11;;;;;;;13.45;6.32;;;24.00;28.00;;;;;;5002496;28;20057;-54
2020/12/06 10:54:37;;;;;;;16.17;6.63;;;23.90;29.10;;;;;;5023246;28;20071;-56
2020/12/06 10:57:04;;;;;;;18.25;7.70;;;23.90;30.00;;;;;;5030668;28;20109;-56
2020/12/06 10:59:30;;;;;;;18.27;7.40;;;23.90;30.90;;;;;;5022669;28;20030;-58
2020/12/06 11:01:58;;;;;;;17.33;7.68;;;24.00;31.70;;;;;;5025802;28;20038;-60
2020/12/06 11:04:24;;;;;;;17.02;7.22;;;24.20;32.20;;;;;;5027581;28;20033;-59
2020/12/06 11:06:49;;;;;;;15.05;7.32;;;24.20;32.30;;;;;;5025459;28;20149;-59
2020/12/06 11:09:15;;;;;;;16.88;7.47;;;24.30;32.40;;;;;;5023673;28;20033;-63
2020/12/06 11:11:41;;;;;;;14.90;6.68;;;24.30;32.40;;;;;;5023350;28;20037;-58
2020/12/06 11:14:07;;;;;;;14.38;6.60;;;24.40;32.70;;;;;;5004887;28;20030;-61
2020/12/06 11:16:32;;;;;;;13.40;6.82;;;24.40;32.80;;;;;;5022639;28;20465;-60
2020/12/06 11:18:58;;;;;;;15.02;7.00;;;24.50;33.20;;;;;;5019852;28;20037;-60
2020/12/06 11:21:24;;;;;;;14.98;7.07;;;24.50;33.80;;;;;;5029171;28;20029;-57
2020/12/06 11:23:50;;;;;;;12.75;6.68;;;24.60;34.30;;;;;;5022644;28;20133;-60
2020/12/06 11:26:16;;;;;;;12.98;5.85;;;24.60;34.50;;;;;;5011020;28;20433;-57
2020/12/06 11:28:45;;;;;;;14.15;6.88;;;24.70;34.90;;;;;;5008769;28;20064;-56
2020/12/06 11:31:12;;;;;;;13.25;6.22;;;24.70;34.10;;;;;;5010805;28;20468;-55
2020/12/06 11:33:38;;;;;;;12.50;6.03;;;24.70;33.60;;;;;;5006639;28;20030;-55
2020/12/06 11:36:04;;;;;;;14.18;5.43;;;24.70;33.30;;;;;;5011307;28;20384;-54
2020/12/06 11:38:31;;;;;;;9.60;4.68;;;24.70;32.90;;;;;;5005003;28;20046;-53
2020/12/06 11:40:57;;;;;;;8.48;4.68;;;24.70;32.70;;;;;;5002219;28;20338;-55
2020/12/06 11:43:23;;;;;;;9.45;5.10;;;24.70;32.40;;;;;;5009349;28;20471;-55
2020/12/06 11:45:49;;;;;;;8.88;4.40;;;24.70;32.20;;;;;;5009932;28;20086;-58
2020/12/06 11:48:21;;;;;;;9.90;4.63;;;24.70;32.00;;;;;;5010913;28;20030;-58
2020/12/06 11:50:47;;;;;;;9.13;4.07;;;24.60;31.80;;;;;;5005401;28;20334;-58
2020/12/06 11:53:13;;;;;;;9.27;4.82;;;24.60;31.60;;;;;;5009670;28;20037;-55
2020/12/06 11:55:39;;;;;;;8.38;4.15;;;24.60;31.40;;;;;;5006205;28;20326;-56
2020/12/06 11:58:05;;;;;;;11.35;4.50;;;24.60;31.30;;;;;;5009378;28;20022;-54
2020/12/06 12:00:31;;;;;;;7.35;4.22;;;24.60;31.30;;;;;;5008936;28;20049;-56
2020/12/06 12:02:57;;;;;;;8.68;4.20;;;24.60;31.10;;;;;;5007565;28;20041;-55
2020/12/06 12:05:22;;;;;;;5.82;3.70;;;24.60;31.10;;;;;;5008242;28;20026;-55
2020/12/06 12:07:48;;;;;;;7.10;3.65;;;24.50;31.60;;;;;;5002814;28;20034;-57
2020/12/06 12:10:16;;;;;;;6.32;3.85;;;24.60;30.90;;;;;;4985763;28;20408;-56
2020/12/06 12:12:42;;;;;;;6.05;3.60;;;24.50;30.80;;;;;;5004637;28;20041;-52
2020/12/06 12:15:08;;;;;;;7.25;3.33;;;24.50;30.70;;;;;;5004748;28;20048;-59
2020/12/06 12:17:34;;;;;;;6.03;3.30;;;24.50;30.70;;;;;;5007485;28;20125;-58
2020/12/06 12:20:01;;;;;;;6.40;3.78;;;24.50;30.60;;;;;;5008037;28;20034;-55
2020/12/06 12:22:27;;;;;;;6.35;3.75;;;24.40;30.70;;;;;;5005372;28;20074;-56
2020/12/06 12:24:53;;;;;;;7.63;3.42;;;24.40;31.10;;;;;;5016434;28;20084;-56
2020/12/06 12:27:22;;;;;;;7.72;3.80;;;24.50;31.40;;;;;;5035734;28;20090;-52
2020/12/06 12:29:48;;;;;;;6.60;3.50;;;24.60;31.70;;;;;;5029052;28;20040;-53
2020/12/06 12:32:13;;;;;;;8.55;4.22;;;24.70;31.80;;;;;;5030375;28;20040;-53
2020/12/06 12:34:39;;;;;;;6.65;3.53;;;24.80;31.90;;;;;;5033402;28;20452;-59
2020/12/06 12:37:05;;;;;;;9.07;4.22;;;24.90;31.90;;;;;;5026827;28;20161;-60
2020/12/06 12:39:31;;;;;;;8.30;3.85;;;25.00;31.90;;;;;;5028723;28;20450;-56
2020/12/06 12:42:03;;;;;;;7.93;4.13;;;25.00;32.40;;;;;;5024436;28;20113;-50
2020/12/06 12:44:30;;;;;;;7.60;4.07;;;25.10;31.80;;;;;;5025039;28;20117;-56
2020/12/06 12:46:59;;;;;;;9.35;4.10;;;25.10;31.70;;;;;;5027484;28;20470;-61